createdAt,value
2022-08-08T00:00:56.162Z,2.70
2022-08-08T00:03:32.216Z,2.50
2022-08-08T00:06:14.695Z,2.50
2022-08-08T00:09:02.287Z,2.63
2022-08-08T00:12:03.055Z,2.53
2022-08-08T00:15:04.976Z,2.03
2022-08-08T00:18:04.272Z,2.22
2022-08-08T00:20:49.509Z,2.35
2022-08-08T00:23:43.061Z,2.20
2022-08-08T00:26:30.154Z,2.10
2022-08-08T00:29:44.822Z,2.30
2022-08-08T00:32:37.787Z,1.55
2022-08-08T00:35:39.744Z,2.15
2022-08-08T00:38:16.717Z,2.05
2022-08-08T00:41:15.037Z,1.85
2022-08-08T00:44:02.616Z,2.00
2022-08-08T00:46:56.803Z,2.10
2022-08-08T00:50:03.525Z,2.10
2022-08-08T00:53:18.319Z,2.85
2022-08-08T00:56:21.145Z,1.90
2022-08-08T00:59:43.174Z,2.00
2022-08-08T01:03:58.370Z,2.05
2022-08-08T01:06:03.237Z,1.90
2022-08-08T01:09:35.903Z,2.00
2022-08-08T01:12:48.501Z,2.00
2022-08-08T01:15:54.668Z,2.20
2022-08-08T01:19:13.609Z,1.98
2022-08-08T01:22:23.624Z,1.73
2022-08-08T01:25:40.804Z,2.25
2022-08-08T01:28:56.104Z,2.78
2022-08-08T01:32:13.343Z,2.05
2022-08-08T01:35:14.783Z,1.95
2022-08-08T01:38:10.428Z,2.00
2022-08-08T01:40:55.679Z,2.30
2022-08-08T01:43:40.241Z,1.85
2022-08-08T01:46:52.836Z,2.20
2022-08-08T01:50:20.015Z,2.00
2022-08-08T01:55:14.655Z,2.10
2022-08-08T01:56:30.631Z,1.80
2022-08-08T02:00:01.761Z,1.77
2022-08-08T02:02:58.836Z,2.05
2022-08-08T02:05:59.402Z,1.90
2022-08-08T02:08:47.436Z,2.00
2022-08-08T02:11:58.818Z,1.98
2022-08-08T02:14:55.621Z,2.90
2022-08-08T02:17:51.692Z,2.30
2022-08-08T02:21:20.247Z,2.53
2022-08-08T02:24:29.076Z,2.22
2022-08-08T02:27:42.652Z,2.08
2022-08-08T02:31:43.972Z,2.45
2022-08-08T02:34:33.196Z,1.70
2022-08-08T02:37:51.406Z,1.70
2022-08-08T02:40:57.037Z,2.00
2022-08-08T02:44:37.408Z,3.28
2022-08-08T02:47:55.179Z,2.38
2022-08-08T02:50:40.447Z,2.13
2022-08-08T02:53:28.712Z,2.40
2022-08-08T02:56:33.381Z,1.92
2022-08-08T02:59:57.931Z,1.98
2022-08-08T03:03:11.418Z,2.53
2022-08-08T03:06:24.015Z,2.22
2022-08-08T03:09:59.261Z,2.15
2022-08-08T03:14:15.781Z,2.42
2022-08-08T03:16:39.042Z,2.00
2022-08-08T03:20:11.535Z,2.10
2022-08-08T03:22:56.985Z,2.05
2022-08-08T03:25:36.163Z,2.13
2022-08-08T03:28:13.976Z,2.00
2022-08-08T03:30:48.977Z,1.90
2022-08-08T03:33:54.904Z,2.10
2022-08-08T03:36:27.556Z,2.42
2022-08-08T03:39:15.299Z,1.98
2022-08-08T03:42:13.152Z,2.90
2022-08-08T03:44:38.689Z,1.88
2022-08-08T03:47:19.271Z,1.83
2022-08-08T03:50:00.918Z,2.10
2022-08-08T03:52:37.007Z,2.13
2022-08-08T03:55:20.240Z,3.63
2022-08-08T03:58:30.195Z,2.08
2022-08-08T04:01:23.807Z,2.20
2022-08-08T04:03:59.646Z,1.83
2022-08-08T04:06:38.044Z,2.20
2022-08-08T04:09:11.178Z,2.13
2022-08-08T04:11:58.248Z,2.15
2022-08-08T04:14:38.578Z,2.03
2022-08-08T04:17:22.216Z,2.30
2022-08-08T04:19:56.621Z,1.98
2022-08-08T04:22:29.771Z,1.98
2022-08-08T04:24:59.011Z,2.50
2022-08-08T04:28:02.978Z,2.15
2022-08-08T04:30:18.552Z,2.42
2022-08-08T04:32:50.390Z,2.00
2022-08-08T04:35:22.659Z,1.80
2022-08-08T04:37:53.637Z,2.25
2022-08-08T04:40:26.118Z,1.67
2022-08-08T04:43:01.119Z,2.00
2022-08-08T04:45:40.477Z,1.75
2022-08-08T04:48:08.713Z,1.88
2022-08-08T04:50:45.894Z,2.28
2022-08-08T04:54:27.063Z,1.73
2022-08-08T04:56:09.153Z,2.05
2022-08-08T04:58:38.188Z,1.70
2022-08-08T05:01:10.852Z,2.05
2022-08-08T05:04:10.628Z,1.77
2022-08-08T05:06:36.307Z,1.77
2022-08-08T05:09:05.977Z,1.92
2022-08-08T05:11:39.604Z,2.30
2022-08-08T05:14:12.789Z,2.00
2022-08-08T05:16:54.856Z,1.80
2022-08-08T05:20:11.634Z,2.45
2022-08-08T05:22:23.154Z,1.77
2022-08-08T05:24:51.895Z,1.92
2022-08-08T05:29:52.597Z,2.17
2022-08-08T05:32:27.365Z,2.03
2022-08-08T05:35:01.815Z,1.85
2022-08-08T05:37:51.839Z,1.58
2022-08-08T05:40:28.685Z,2.15
2022-08-08T05:43:38.701Z,1.60
2022-08-08T05:46:08.549Z,2.05
2022-08-08T05:48:41.783Z,1.75
2022-08-08T05:51:14.949Z,1.67
2022-08-08T05:54:26.013Z,1.77
2022-08-08T05:56:42.308Z,1.70
2022-08-08T05:59:58.830Z,1.52
2022-08-08T06:02:43.621Z,2.58
2022-08-08T06:05:32.996Z,1.50
2022-08-08T06:08:09.363Z,1.77
2022-08-08T06:10:40.915Z,1.67
2022-08-08T06:13:12.299Z,1.67
2022-08-08T06:15:51.090Z,2.25
2022-08-08T06:18:28.270Z,1.83
2022-08-08T06:21:03.683Z,1.90
2022-08-08T06:23:53.281Z,1.55
2022-08-08T06:26:43.360Z,1.40
2022-08-08T06:29:26.490Z,1.77
2022-08-08T06:32:18.464Z,1.92
2022-08-08T06:35:11.814Z,1.80
2022-08-08T06:38:04.502Z,1.45
2022-08-08T06:40:38.824Z,2.92
2022-08-08T06:43:34.110Z,1.23
2022-08-08T06:46:13.288Z,1.42
2022-08-08T06:48:46.635Z,1.63
2022-08-08T06:51:16.366Z,1.50
2022-08-08T06:53:50.979Z,2.08
2022-08-08T06:58:54.548Z,1.63
2022-08-08T07:02:27.295Z,1.70
2022-08-08T07:04:37.224Z,1.90
2022-08-08T07:07:12.283Z,1.88
2022-08-08T07:09:59.565Z,1.30
2022-08-08T07:12:47.931Z,2.05
2022-08-08T07:16:05.319Z,1.60
2022-08-08T07:19:06.413Z,1.70
2022-08-08T07:22:12.156Z,1.83
2022-08-08T07:25:04.123Z,2.13
2022-08-08T07:28:01.764Z,1.77
2022-08-08T07:30:31.687Z,2.00
2022-08-08T07:33:01.078Z,1.95
2022-08-08T07:35:35.474Z,1.45
2022-08-08T07:38:10.630Z,1.70
2022-08-08T07:41:04.475Z,1.75
2022-08-08T07:43:37.018Z,1.98
2022-08-08T07:46:24.545Z,1.23
2022-08-08T07:48:58.494Z,1.50
2022-08-08T07:51:45.332Z,1.25
2022-08-08T07:54:40.039Z,1.27
2022-08-08T07:57:52.067Z,2.33
2022-08-08T08:00:23.952Z,1.40
2022-08-08T08:03:20.783Z,1.25
2022-08-08T08:05:55.719Z,1.30
2022-08-08T08:08:50.301Z,1.20
2022-08-08T08:11:23.577Z,1.20
2022-08-08T08:14:11.437Z,1.40
2022-08-08T08:16:50.408Z,1.48
2022-08-08T08:19:20.024Z,1.50
2022-08-08T08:21:57.210Z,1.20
2022-08-08T08:24:35.149Z,1.10
2022-08-08T08:29:36.189Z,1.33
2022-08-08T08:32:06.177Z,1.48
2022-08-08T08:34:37.764Z,1.40
2022-08-08T08:37:12.501Z,1.30
2022-08-08T08:40:01.640Z,1.40
2022-08-08T08:42:36.160Z,1.45
2022-08-08T08:45:21.120Z,1.55
2022-08-08T08:47:58.211Z,1.67
2022-08-08T08:50:33.051Z,1.48
2022-08-08T08:53:54.958Z,1.30
2022-08-08T08:56:08.497Z,1.33
2022-08-08T08:58:50.191Z,1.30
2022-08-08T09:01:36.585Z,1.52
2022-08-08T09:04:30.929Z,1.33
2022-08-08T09:07:13.713Z,1.25
2022-08-08T09:09:57.160Z,1.40
2022-08-08T09:12:29.335Z,1.60
2022-08-08T09:14:59.297Z,1.20
2022-08-08T09:17:40.770Z,1.25
2022-08-08T09:21:56.926Z,1.20
2022-08-08T09:23:05.241Z,1.48
2022-08-08T09:25:54.641Z,1.30
2022-08-08T09:28:37.374Z,1.25
2022-08-08T09:31:26.445Z,0.93
2022-08-08T09:34:30.800Z,0.80
2022-08-08T09:37:57.336Z,1.15
2022-08-08T09:40:10.967Z,0.80
2022-08-08T09:42:51.495Z,0.98
2022-08-08T09:46:00.855Z,0.75
2022-08-08T09:48:18.595Z,0.80
2022-08-08T09:50:55.764Z,0.95
2022-08-08T09:53:59.978Z,1.00
2022-08-08T09:56:41.411Z,0.85
2022-08-08T10:02:29.390Z,0.88
2022-08-08T10:05:26.176Z,0.80
2022-08-08T10:07:59.714Z,0.80
2022-08-08T10:10:50.866Z,0.93
2022-08-08T10:13:29.999Z,0.85
2022-08-08T10:16:03.510Z,1.00
2022-08-08T10:18:36.657Z,0.90
2022-08-08T10:21:25.865Z,1.00
2022-08-08T10:24:03.603Z,1.00
2022-08-08T10:26:52.405Z,0.80
2022-08-08T10:30:16.447Z,0.95
2022-08-08T10:33:02.485Z,0.80
2022-08-08T10:36:09.181Z,0.80
2022-08-08T10:38:20.853Z,1.02
2022-08-08T10:40:53.085Z,1.40
2022-08-08T10:43:23.152Z,1.00
2022-08-08T10:45:54.979Z,0.95
2022-08-08T10:48:57.453Z,0.95
2022-08-08T10:51:31.403Z,1.20
2022-08-08T10:54:08.556Z,0.80
2022-08-08T10:56:43.076Z,0.93
2022-08-08T10:59:14.268Z,0.80
2022-08-08T11:01:49.477Z,1.13
2022-08-08T11:04:29.523Z,0.75
2022-08-08T11:07:01.143Z,1.00
2022-08-08T11:09:32.154Z,1.00
2022-08-08T11:12:12.470Z,0.90
2022-08-08T11:15:15.547Z,0.98
2022-08-08T11:18:00.017Z,1.00
2022-08-08T11:20:29.862Z,0.75
2022-08-08T11:23:05.583Z,1.15
2022-08-08T11:25:52.639Z,1.33
2022-08-08T11:28:29.610Z,0.70
2022-08-08T11:31:03.973Z,1.10
2022-08-08T11:33:52.887Z,1.00
2022-08-08T11:36:23.532Z,1.10
2022-08-08T11:38:57.591Z,1.10
2022-08-08T11:41:28.219Z,0.80
2022-08-08T11:44:01.313Z,1.20
2022-08-08T11:46:32.729Z,0.80
2022-08-08T11:49:09.406Z,1.00
2022-08-08T11:51:49.795Z,1.45
2022-08-08T11:54:38.269Z,1.42
2022-08-08T11:57:43.057Z,0.75
2022-08-08T12:00:17.970Z,0.70
2022-08-08T12:02:56.138Z,0.88
2022-08-08T12:05:36.352Z,1.05
2022-08-08T12:08:04.785Z,0.80
2022-08-08T12:10:32.614Z,0.80
2022-08-08T12:13:05.442Z,0.73
2022-08-08T12:15:43.052Z,1.08
2022-08-08T12:18:24.919Z,0.88
2022-08-08T12:20:58.817Z,0.90
2022-08-08T12:23:43.904Z,0.90
2022-08-08T12:26:27.444Z,1.10
2022-08-08T12:29:21.418Z,1.13
2022-08-08T12:32:13.600Z,0.90
2022-08-08T12:35:13.716Z,1.10
2022-08-08T12:38:01.165Z,0.95
2022-08-08T12:40:57.167Z,1.00
2022-08-08T12:43:47.521Z,0.80
2022-08-08T12:46:24.840Z,1.15
2022-08-08T12:49:25.137Z,0.80
2022-08-08T12:51:58.444Z,1.02
2022-08-08T12:54:41.042Z,0.80
2022-08-08T12:57:24.300Z,0.80
2022-08-08T13:00:04.991Z,0.90
2022-08-08T13:02:37.902Z,1.17
2022-08-08T13:05:27.118Z,0.88
2022-08-08T13:08:17.798Z,0.98
2022-08-08T13:10:56.517Z,1.00
2022-08-08T13:13:34.893Z,1.20
2022-08-08T13:16:38.338Z,1.00
2022-08-08T13:19:12.326Z,1.10
2022-08-08T13:21:53.263Z,1.63
2022-08-08T13:24:42.201Z,0.88
2022-08-08T13:27:20.036Z,1.10
2022-08-08T13:30:05.897Z,1.00
2022-08-08T13:32:39.398Z,0.98
2022-08-08T13:35:11.761Z,1.02
2022-08-08T13:38:06.751Z,0.90
2022-08-08T13:40:35.640Z,0.98
2022-08-08T13:43:04.038Z,1.10
2022-08-08T13:45:31.915Z,0.93
2022-08-08T13:48:04.237Z,1.08
2022-08-08T13:50:49.308Z,0.95
2022-08-08T13:53:36.218Z,0.75
2022-08-08T13:56:11.868Z,0.90
2022-08-08T13:58:56.317Z,1.00
2022-08-08T14:01:32.749Z,1.02
2022-08-08T14:04:25.090Z,0.82
2022-08-08T14:07:04.701Z,0.98
2022-08-08T14:10:05.289Z,0.80
2022-08-08T14:12:35.013Z,0.90
2022-08-08T14:15:03.880Z,1.02
2022-08-08T14:17:58.286Z,1.10
2022-08-08T14:20:57.537Z,0.70
2022-08-08T14:23:30.057Z,1.08
2022-08-08T14:26:10.889Z,1.10
2022-08-08T14:28:49.988Z,0.95
2022-08-08T14:31:23.349Z,0.90
2022-08-08T14:34:03.883Z,0.95
2022-08-08T14:36:35.971Z,1.08
2022-08-08T14:39:11.732Z,1.10
2022-08-08T14:41:53.770Z,0.90
2022-08-08T14:44:35.248Z,0.90
2022-08-08T14:47:21.310Z,0.75
2022-08-08T14:50:06.908Z,1.02
2022-08-08T14:52:53.137Z,1.00
2022-08-08T14:55:22.693Z,0.98
2022-08-08T14:58:11.719Z,1.30
2022-08-08T15:03:15.007Z,0.60
2022-08-08T15:05:53.633Z,1.02
2022-08-08T15:08:35.033Z,1.08
2022-08-08T15:14:01.026Z,0.85
2022-08-08T15:16:28.225Z,0.90
2022-08-08T15:18:55.846Z,1.00
2022-08-08T15:21:27.707Z,1.10
2022-08-08T15:23:58.128Z,1.08
2022-08-08T15:26:29.021Z,1.00
2022-08-08T15:28:57.376Z,0.80
2022-08-08T15:31:55.633Z,0.70
2022-08-08T15:34:29.653Z,1.10
2022-08-08T15:37:02.382Z,0.73
2022-08-08T15:39:38.017Z,0.80
2022-08-08T15:42:13.286Z,1.10
2022-08-08T15:44:52.008Z,0.80
2022-08-08T15:47:22.551Z,1.10
2022-08-08T15:49:50.895Z,0.85
2022-08-08T15:52:21.842Z,0.80
2022-08-08T15:54:52.265Z,0.80
2022-08-08T15:57:22.362Z,1.00
2022-08-08T16:05:21.551Z,1.33
2022-08-08T16:07:53.920Z,0.85
2022-08-08T16:13:09.627Z,1.00
2022-08-08T16:13:32.192Z,1.00
2022-08-08T16:16:09.495Z,1.13
2022-08-08T16:18:53.213Z,1.00
2022-08-08T16:21:32.096Z,1.00
2022-08-08T16:24:10.073Z,0.90
2022-08-08T16:26:42.255Z,0.95
2022-08-08T16:29:17.771Z,1.00
2022-08-08T16:31:49.099Z,0.80
2022-08-08T16:34:20.707Z,1.25
2022-08-08T16:36:52.761Z,0.93
2022-08-08T16:39:59.942Z,0.90
2022-08-08T16:42:17.808Z,0.90
2022-08-08T16:44:53.931Z,0.90
2022-08-08T16:47:41.516Z,0.93
2022-08-08T16:50:16.836Z,1.30
2022-08-08T16:55:01.764Z,1.23
2022-08-08T16:55:55.472Z,1.17
2022-08-08T16:58:31.718Z,1.10
2022-08-08T17:01:10.889Z,1.23
2022-08-08T17:03:58.973Z,0.80
2022-08-08T17:06:36.402Z,0.95
2022-08-08T17:09:07.241Z,1.40
2022-08-08T17:11:49.306Z,1.02
2022-08-08T17:14:34.246Z,1.35
2022-08-08T17:17:04.834Z,1.40
2022-08-08T17:19:41.005Z,1.08
2022-08-08T17:22:09.877Z,1.00
2022-08-08T17:24:37.506Z,0.80
2022-08-08T17:27:05.587Z,1.35
2022-08-08T17:29:36.636Z,0.93
2022-08-08T17:32:11.433Z,1.20
2022-08-08T17:35:14.690Z,1.17
2022-08-08T17:37:27.544Z,1.13
2022-08-08T17:40:05.673Z,1.23
2022-08-08T17:42:40.823Z,1.23
2022-08-08T17:45:14.313Z,1.10
2022-08-08T17:47:50.751Z,1.20
2022-08-08T17:50:18.604Z,0.90
2022-08-08T17:52:47.825Z,1.17
2022-08-08T17:56:03.449Z,1.13
2022-08-08T17:58:03.328Z,1.08
2022-08-08T18:00:31.761Z,1.10
2022-08-08T18:03:07.447Z,0.82
2022-08-08T18:05:48.555Z,0.90
2022-08-08T18:11:15.816Z,1.00
2022-08-08T18:13:47.227Z,1.35
2022-08-08T18:16:17.101Z,1.10
2022-08-08T18:18:53.740Z,1.10
2022-08-08T18:22:00.143Z,1.40
2022-08-08T18:24:21.370Z,2.03
2022-08-08T18:27:17.509Z,1.30
2022-08-08T18:34:12.411Z,2.22
2022-08-08T18:36:51.678Z,1.95
2022-08-08T18:39:28.390Z,2.00
2022-08-08T18:42:02.986Z,2.15
2022-08-08T18:44:35.847Z,2.45
2022-08-08T18:47:04.731Z,2.75
2022-08-08T18:49:41.162Z,1.98
2022-08-08T18:52:23.408Z,2.10
2022-08-08T18:55:10.933Z,2.45
2022-08-08T18:57:44.700Z,2.20
2022-08-08T19:00:20.385Z,2.13
2022-08-08T19:02:55.952Z,1.60
2022-08-08T19:05:34.085Z,1.55
2022-08-08T19:11:01.813Z,1.40
2022-08-08T19:13:53.529Z,1.73
2022-08-08T19:16:20.266Z,1.75
2022-08-08T19:19:02.176Z,1.95
2022-08-08T19:21:47.831Z,1.40
2022-08-08T19:24:42.758Z,1.60
2022-08-08T19:27:06.964Z,1.80
2022-08-08T19:29:40.641Z,2.38
2022-08-08T19:32:13.110Z,2.03
2022-08-08T19:34:49.370Z,1.85
2022-08-08T19:37:42.025Z,1.80
2022-08-08T19:40:14.695Z,1.70
2022-08-08T19:42:45.818Z,1.65
2022-08-08T19:45:57.696Z,1.60
2022-08-08T19:48:04.971Z,1.70
2022-08-08T19:50:35.842Z,2.17
2022-08-08T19:53:04.389Z,1.90
2022-08-08T19:55:52.171Z,1.70
2022-08-08T19:58:19.656Z,1.98
2022-08-08T20:00:53.098Z,1.58
2022-08-08T20:04:00.906Z,1.85
2022-08-08T20:06:15.311Z,2.00
2022-08-08T20:08:48.201Z,1.98
2022-08-08T20:11:16.422Z,2.20
2022-08-08T20:14:31.472Z,2.17
2022-08-08T20:16:34.223Z,2.65
2022-08-08T20:19:04.008Z,2.10
2022-08-08T20:21:37.948Z,2.10
2022-08-08T20:24:07.970Z,1.88
2022-08-08T20:26:38.144Z,2.30
2022-08-08T20:29:08.571Z,2.20
2022-08-08T20:32:02.702Z,1.67
2022-08-08T20:34:31.223Z,2.00
2022-08-08T20:37:04.459Z,2.40
2022-08-08T20:39:41.862Z,2.20
2022-08-08T20:42:28.425Z,2.60
2022-08-08T20:44:58.523Z,2.42
2022-08-08T20:47:26.789Z,2.67
2022-08-08T20:50:05.449Z,2.60
2022-08-08T20:52:35.893Z,3.60
2022-08-08T20:55:16.483Z,2.53
2022-08-08T20:57:51.105Z,2.80
2022-08-08T21:00:18.883Z,2.83
2022-08-08T21:02:48.532Z,2.92
2022-08-08T21:05:20.218Z,3.00
2022-08-08T21:08:37.335Z,2.65
2022-08-08T21:10:37.364Z,2.72
2022-08-08T21:13:08.804Z,2.17
2022-08-08T21:16:05.971Z,2.22
2022-08-08T21:18:24.738Z,2.78
2022-08-08T21:20:55.758Z,2.60
2022-08-08T21:23:58.970Z,2.65
2022-08-08T21:26:11.713Z,2.15
2022-08-08T21:28:39.957Z,2.50
2022-08-08T21:31:23.154Z,2.75
2022-08-08T21:33:54.562Z,2.13
2022-08-08T21:36:28.910Z,3.03
2022-08-08T21:38:58.140Z,2.63
2022-08-08T21:41:38.212Z,2.72
2022-08-08T21:44:12.140Z,2.28
2022-08-08T21:48:05.599Z,2.45
2022-08-08T21:49:29.862Z,2.65
2022-08-08T21:54:18.366Z,2.88
2022-08-08T21:54:58.109Z,2.70
2022-08-08T21:57:29.924Z,2.50
2022-08-08T22:00:14.467Z,2.80
2022-08-08T22:02:44.226Z,3.00
2022-08-08T22:05:15.053Z,3.47
2022-08-08T22:07:48.047Z,2.38
2022-08-08T22:10:28.757Z,3.08
2022-08-08T22:13:17.767Z,2.85
2022-08-08T22:15:58.504Z,2.70
2022-08-08T22:18:35.289Z,3.20
2022-08-08T22:21:13.850Z,3.20
2022-08-08T22:23:51.873Z,2.58
2022-08-08T22:26:29.728Z,3.38
2022-08-08T22:29:04.794Z,2.90
2022-08-08T22:32:01.853Z,3.13
2022-08-08T22:34:39.590Z,2.95
2022-08-08T22:37:14.874Z,3.17
2022-08-08T22:40:00.237Z,3.03
2022-08-08T22:42:34.328Z,3.35
2022-08-08T22:45:12.370Z,3.10
2022-08-08T22:47:47.147Z,3.35
2022-08-08T22:50:26.455Z,3.63
2022-08-08T22:54:27.603Z,2.70
2022-08-08T22:55:57.922Z,3.83
2022-08-08T22:58:34.394Z,3.50
2022-08-08T23:02:01.287Z,3.10
2022-08-08T23:03:58.626Z,3.22
2022-08-08T23:06:26.702Z,3.90
2022-08-08T23:08:58.665Z,3.20
2022-08-08T23:11:30.856Z,3.13
2022-08-08T23:14:20.733Z,3.80
2022-08-08T23:19:30.929Z,3.90
2022-08-08T23:22:05.475Z,3.88
2022-08-08T23:24:36.650Z,4.05
2022-08-08T23:27:10.684Z,4.13
2022-08-08T23:29:39.005Z,3.75
2022-08-08T23:32:10.847Z,3.50
2022-08-08T23:34:39.516Z,3.60
2022-08-08T23:37:17.038Z,3.47
2022-08-08T23:39:55.449Z,3.97
2022-08-08T23:42:25.199Z,3.88
2022-08-08T23:44:55.018Z,4.65
2022-08-08T23:49:08.765Z,4.22
2022-08-08T23:50:14.961Z,4.35
2022-08-08T23:52:58.961Z,3.72
2022-08-08T23:55:31.972Z,3.88
2022-08-08T23:58:01.738Z,4.20
